sensor_id;sensor_type;location;lat;lon;timestamp;P1;durP1;ratioP1;P2;durP2;ratioP2
70850;SDS011;58475;49.662;9.636;2023-02-22T00:00:11;9.18;;;3.75;;
70850;SDS011;58475;49.662;9.636;2023-02-22T00:02:50;8.80;;;3.70;;
70850;SDS011;58475;49.662;9.636;2023-02-22T00:05:24;6.25;;;3.50;;
70850;SDS011;58475;49.662;9.636;2023-02-22T00:07:51;7.85;;;3.42;;
70850;SDS011;58475;49.662;9.636;2023-02-22T00:10:16;7.13;;;3.47;;
70850;SDS011;58475;49.662;9.636;2023-02-22T00:12:47;7.60;;;3.75;;
70850;SDS011;58475;49.662;9.636;2023-02-22T00:15:14;5.53;;;3.30;;
70850;SDS011;58475;49.662;9.636;2023-02-22T00:17:42;11.98;;;4.22;;
70850;SDS011;58475;49.662;9.636;2023-02-22T00:20:08;6.03;;;3.15;;
70850;SDS011;58475;49.662;9.636;2023-02-22T00:22:41;11.77;;;3.57;;
70850;SDS011;58475;49.662;9.636;2023-02-22T00:25:08;9.95;;;3.47;;
70850;SDS011;58475;49.662;9.636;2023-02-22T00:27:34;5.97;;;3.30;;
70850;SDS011;58475;49.662;9.636;2023-02-22T00:30:00;9.05;;;3.20;;
70850;SDS011;58475;49.662;9.636;2023-02-22T00:32:29;6.95;;;3.42;;
70850;SDS011;58475;49.662;9.636;2023-02-22T00:34:55;5.97;;;3.03;;
70850;SDS011;58475;49.662;9.636;2023-02-22T00:37:23;5.45;;;3.08;;
70850;SDS011;58475;49.662;9.636;2023-02-22T00:39:48;6.85;;;3.45;;
70850;SDS011;58475;49.662;9.636;2023-02-22T00:42:15;8.88;;;3.33;;
70850;SDS011;58475;49.662;9.636;2023-02-22T00:44:42;11.07;;;3.40;;
70850;SDS011;58475;49.662;9.636;2023-02-22T00:47:10;6.38;;;3.35;;
70850;SDS011;58475;49.662;9.636;2023-02-22T00:49:36;7.95;;;3.40;;
70850;SDS011;58475;49.662;9.636;2023-02-22T00:52:02;6.95;;;3.28;;
70850;SDS011;58475;49.662;9.636;2023-02-22T00:54:28;7.03;;;3.13;;
70850;SDS011;58475;49.662;9.636;2023-02-22T00:56:56;5.93;;;3.00;;
70850;SDS011;58475;49.662;9.636;2023-02-22T00:59:22;7.72;;;3.20;;
70850;SDS011;58475;49.662;9.636;2023-02-22T01:01:48;6.10;;;3.10;;
70850;SDS011;58475;49.662;9.636;2023-02-22T01:04:14;5.85;;;3.08;;
70850;SDS011;58475;49.662;9.636;2023-02-22T01:06:40;5.20;;;2.95;;
70850;SDS011;58475;49.662;9.636;2023-02-22T01:09:05;8.52;;;3.38;;
70850;SDS011;58475;49.662;9.636;2023-02-22T01:11:31;8.05;;;3.40;;
70850;SDS011;58475;49.662;9.636;2023-02-22T01:13:59;8.55;;;3.28;;
70850;SDS011;58475;49.662;9.636;2023-02-22T01:16:25;11.95;;;3.30;;
70850;SDS011;58475;49.662;9.636;2023-02-22T01:18:50;6.90;;;3.40;;
70850;SDS011;58475;49.662;9.636;2023-02-22T01:21:16;6.15;;;3.22;;
70850;SDS011;58475;49.662;9.636;2023-02-22T01:23:44;7.03;;;3.20;;
70850;SDS011;58475;49.662;9.636;2023-02-22T01:26:10;6.40;;;3.25;;
70850;SDS011;58475;49.662;9.636;2023-02-22T01:28:36;11.45;;;4.07;;
70850;SDS011;58475;49.662;9.636;2023-02-22T01:31:02;7.72;;;3.58;;
70850;SDS011;58475;49.662;9.636;2023-02-22T01:33:29;9.68;;;3.53;;
70850;SDS011;58475;49.662;9.636;2023-02-22T01:35:55;6.88;;;3.83;;
70850;SDS011;58475;49.662;9.636;2023-02-22T01:38:20;7.47;;;3.30;;
70850;SDS011;58475;49.662;9.636;2023-02-22T01:40:47;6.55;;;3.50;;
70850;SDS011;58475;49.662;9.636;2023-02-22T01:46:01;7.47;;;3.55;;
70850;SDS011;58475;49.662;9.636;2023-02-22T01:48:53;5.57;;;3.20;;
70850;SDS011;58475;49.662;9.636;2023-02-22T01:51:31;6.38;;;3.40;;
70850;SDS011;58475;49.662;9.636;2023-02-22T01:54:23;5.93;;;3.30;;
70850;SDS011;58475;49.662;9.636;2023-02-22T01:59:26;5.53;;;3.10;;
70850;SDS011;58475;49.662;9.636;2023-02-22T02:04:23;6.00;;;3.15;;
70850;SDS011;58475;49.662;9.636;2023-02-22T02:06:53;7.30;;;3.53;;
70850;SDS011;58475;49.662;9.636;2023-02-22T02:11:59;6.78;;;3.15;;
70850;SDS011;58475;49.662;9.636;2023-02-22T02:14:26;7.45;;;3.40;;
70850;SDS011;58475;49.662;9.636;2023-02-22T02:16:56;6.57;;;3.30;;
70850;SDS011;58475;49.662;9.636;2023-02-22T02:22:37;6.88;;;3.33;;
70850;SDS011;58475;49.662;9.636;2023-02-22T02:31:23;7.13;;;3.40;;
70850;SDS011;58475;49.662;9.636;2023-02-22T02:36:43;7.55;;;3.30;;
70850;SDS011;58475;49.662;9.636;2023-02-22T02:42:06;7.47;;;3.20;;
70850;SDS011;58475;49.662;9.636;2023-02-22T02:44:36;6.50;;;3.35;;
70850;SDS011;58475;49.662;9.636;2023-02-22T02:47:18;8.43;;;3.80;;
70850;SDS011;58475;49.662;9.636;2023-02-22T02:50:05;9.18;;;3.67;;
70850;SDS011;58475;49.662;9.636;2023-02-22T02:52:34;9.32;;;3.75;;
70850;SDS011;58475;49.662;9.636;2023-02-22T02:55:03;6.07;;;3.20;;
70850;SDS011;58475;49.662;9.636;2023-02-22T02:57:31;6.80;;;3.60;;
70850;SDS011;58475;49.662;9.636;2023-02-22T02:59:58;5.53;;;3.20;;
70850;SDS011;58475;49.662;9.636;2023-02-22T03:02:27;7.45;;;3.70;;
70850;SDS011;58475;49.662;9.636;2023-02-22T03:10:59;6.55;;;3.25;;
70850;SDS011;58475;49.662;9.636;2023-02-22T03:13:49;6.50;;;3.20;;
70850;SDS011;58475;49.662;9.636;2023-02-22T03:16:43;8.63;;;3.28;;
70850;SDS011;58475;49.662;9.636;2023-02-22T03:19:24;7.25;;;3.78;;
70850;SDS011;58475;49.662;9.636;2023-02-22T03:22:00;6.65;;;3.53;;
70850;SDS011;58475;49.662;9.636;2023-02-22T03:25:18;6.35;;;3.38;;
70850;SDS011;58475;49.662;9.636;2023-02-22T03:27:47;6.35;;;3.20;;
70850;SDS011;58475;49.662;9.636;2023-02-22T03:33:39;7.85;;;3.55;;
70850;SDS011;58475;49.662;9.636;2023-02-22T03:36:36;8.48;;;3.85;;
70850;SDS011;58475;49.662;9.636;2023-02-22T03:39:03;7.30;;;3.85;;
70850;SDS011;58475;49.662;9.636;2023-02-22T03:41:32;6.88;;;3.65;;
70850;SDS011;58475;49.662;9.636;2023-02-22T03:44:04;7.13;;;4.00;;
70850;SDS011;58475;49.662;9.636;2023-02-22T03:46:34;7.03;;;3.55;;
70850;SDS011;58475;49.662;9.636;2023-02-22T03:49:10;7.60;;;3.67;;
70850;SDS011;58475;49.662;9.636;2023-02-22T03:51:39;6.72;;;3.50;;
70850;SDS011;58475;49.662;9.636;2023-02-22T03:54:05;6.22;;;3.72;;
70850;SDS011;58475;49.662;9.636;2023-02-22T03:56:39;7.20;;;3.90;;
70850;SDS011;58475;49.662;9.636;2023-02-22T03:59:11;6.60;;;3.63;;
70850;SDS011;58475;49.662;9.636;2023-02-22T04:01:37;7.90;;;4.10;;
70850;SDS011;58475;49.662;9.636;2023-02-22T04:04:03;6.82;;;3.70;;
70850;SDS011;58475;49.662;9.636;2023-02-22T04:06:30;6.68;;;3.80;;
70850;SDS011;58475;49.662;9.636;2023-02-22T04:08:57;7.75;;;3.97;;
70850;SDS011;58475;49.662;9.636;2023-02-22T04:11:22;7.68;;;3.88;;
70850;SDS011;58475;49.662;9.636;2023-02-22T04:13:48;7.75;;;4.10;;
70850;SDS011;58475;49.662;9.636;2023-02-22T04:16:13;7.15;;;3.70;;
70850;SDS011;58475;49.662;9.636;2023-02-22T04:18:39;6.35;;;3.70;;
70850;SDS011;58475;49.662;9.636;2023-02-22T04:21:05;8.63;;;3.95;;
70850;SDS011;58475;49.662;9.636;2023-02-22T04:23:43;9.10;;;3.55;;
70850;SDS011;58475;49.662;9.636;2023-02-22T04:26:09;8.00;;;3.90;;
70850;SDS011;58475;49.662;9.636;2023-02-22T04:28:34;8.38;;;3.83;;
70850;SDS011;58475;49.662;9.636;2023-02-22T04:31:13;6.60;;;3.40;;
70850;SDS011;58475;49.662;9.636;2023-02-22T04:33:39;7.13;;;3.63;;
70850;SDS011;58475;49.662;9.636;2023-02-22T04:36:04;8.02;;;3.80;;
70850;SDS011;58475;49.662;9.636;2023-02-22T04:38:32;7.72;;;4.50;;
70850;SDS011;58475;49.662;9.636;2023-02-22T04:40:58;7.72;;;4.00;;
70850;SDS011;58475;49.662;9.636;2023-02-22T04:43:25;7.97;;;3.90;;
70850;SDS011;58475;49.662;9.636;2023-02-22T04:45:54;7.40;;;3.75;;
70850;SDS011;58475;49.662;9.636;2023-02-22T04:48:20;7.35;;;3.92;;
70850;SDS011;58475;49.662;9.636;2023-02-22T04:50:45;10.23;;;4.75;;
70850;SDS011;58475;49.662;9.636;2023-02-22T04:53:12;7.55;;;4.47;;
70850;SDS011;58475;49.662;9.636;2023-02-22T04:55:38;8.82;;;5.07;;
70850;SDS011;58475;49.662;9.636;2023-02-22T04:58:03;8.90;;;4.95;;
70850;SDS011;58475;49.662;9.636;2023-02-22T05:00:29;8.95;;;5.07;;
70850;SDS011;58475;49.662;9.636;2023-02-22T05:02:59;9.45;;;4.93;;
70850;SDS011;58475;49.662;9.636;2023-02-22T05:05:25;11.57;;;5.22;;
70850;SDS011;58475;49.662;9.636;2023-02-22T05:07:50;8.55;;;4.93;;
70850;SDS011;58475;49.662;9.636;2023-02-22T05:10:16;8.57;;;4.82;;
70850;SDS011;58475;49.662;9.636;2023-02-22T05:12:42;8.30;;;4.85;;
70850;SDS011;58475;49.662;9.636;2023-02-22T05:15:07;8.35;;;4.63;;
70850;SDS011;58475;49.662;9.636;2023-02-22T05:17:33;10.18;;;5.50;;
70850;SDS011;58475;49.662;9.636;2023-02-22T05:19:59;9.02;;;5.00;;
70850;SDS011;58475;49.662;9.636;2023-02-22T05:22:25;12.38;;;5.03;;
70850;SDS011;58475;49.662;9.636;2023-02-22T05:24:51;7.43;;;4.50;;
70850;SDS011;58475;49.662;9.636;2023-02-22T05:27:17;9.10;;;4.40;;
70850;SDS011;58475;49.662;9.636;2023-02-22T05:29:43;8.45;;;4.63;;
70850;SDS011;58475;49.662;9.636;2023-02-22T05:32:08;8.55;;;4.15;;
70850;SDS011;58475;49.662;9.636;2023-02-22T05:34:36;14.98;;;5.20;;
70850;SDS011;58475;49.662;9.636;2023-02-22T05:37:01;13.15;;;4.78;;
70850;SDS011;58475;49.662;9.636;2023-02-22T05:39:27;10.82;;;5.00;;
70850;SDS011;58475;49.662;9.636;2023-02-22T05:41:54;9.23;;;4.55;;
70850;SDS011;58475;49.662;9.636;2023-02-22T05:44:19;13.07;;;4.93;;
70850;SDS011;58475;49.662;9.636;2023-02-22T05:46:45;16.00;;;4.78;;
70850;SDS011;58475;49.662;9.636;2023-02-22T05:49:10;14.13;;;4.97;;
70850;SDS011;58475;49.662;9.636;2023-02-22T05:51:36;12.48;;;4.95;;
70850;SDS011;58475;49.662;9.636;2023-02-22T05:54:01;17.80;;;5.10;;
70850;SDS011;58475;49.662;9.636;2023-02-22T05:56:27;16.30;;;5.22;;
70850;SDS011;58475;49.662;9.636;2023-02-22T05:58:54;14.77;;;5.05;;
70850;SDS011;58475;49.662;9.636;2023-02-22T06:01:20;10.65;;;5.15;;
70850;SDS011;58475;49.662;9.636;2023-02-22T06:03:46;9.55;;;5.38;;
70850;SDS011;58475;49.662;9.636;2023-02-22T06:06:13;13.60;;;5.07;;
70850;SDS011;58475;49.662;9.636;2023-02-22T06:08:38;10.52;;;4.60;;
70850;SDS011;58475;49.662;9.636;2023-02-22T06:11:04;12.55;;;4.72;;
70850;SDS011;58475;49.662;9.636;2023-02-22T06:13:29;7.82;;;4.70;;
70850;SDS011;58475;49.662;9.636;2023-02-22T06:15:55;12.07;;;4.72;;
70850;SDS011;58475;49.662;9.636;2023-02-22T06:18:20;12.15;;;5.05;;
70850;SDS011;58475;49.662;9.636;2023-02-22T06:20:46;10.88;;;4.38;;
70850;SDS011;58475;49.662;9.636;2023-02-22T06:23:11;14.38;;;5.20;;
70850;SDS011;58475;49.662;9.636;2023-02-22T06:25:37;14.20;;;4.40;;
70850;SDS011;58475;49.662;9.636;2023-02-22T06:28:02;15.63;;;5.00;;
70850;SDS011;58475;49.662;9.636;2023-02-22T06:30:28;12.57;;;4.60;;
70850;SDS011;58475;49.662;9.636;2023-02-22T06:32:54;11.85;;;4.60;;
70850;SDS011;58475;49.662;9.636;2023-02-22T06:35:20;10.27;;;4.65;;
70850;SDS011;58475;49.662;9.636;2023-02-22T06:37:46;14.02;;;4.70;;
70850;SDS011;58475;49.662;9.636;2023-02-22T06:40:11;10.65;;;4.55;;
70850;SDS011;58475;49.662;9.636;2023-02-22T06:42:37;16.08;;;5.25;;
70850;SDS011;58475;49.662;9.636;2023-02-22T06:45:03;7.78;;;4.80;;
70850;SDS011;58475;49.662;9.636;2023-02-22T06:47:29;11.25;;;4.50;;
70850;SDS011;58475;49.662;9.636;2023-02-22T06:49:55;16.20;;;4.95;;
70850;SDS011;58475;49.662;9.636;2023-02-22T06:52:21;14.05;;;4.80;;
70850;SDS011;58475;49.662;9.636;2023-02-22T06:54:48;14.25;;;4.97;;
70850;SDS011;58475;49.662;9.636;2023-02-22T06:57:14;10.80;;;4.25;;
70850;SDS011;58475;49.662;9.636;2023-02-22T06:59:39;13.60;;;4.47;;
70850;SDS011;58475;49.662;9.636;2023-02-22T07:02:05;11.00;;;4.65;;
70850;SDS011;58475;49.662;9.636;2023-02-22T07:04:30;7.70;;;4.30;;
70850;SDS011;58475;49.662;9.636;2023-02-22T07:06:56;15.90;;;5.03;;
70850;SDS011;58475;49.662;9.636;2023-02-22T07:09:21;8.65;;;4.28;;
70850;SDS011;58475;49.662;9.636;2023-02-22T07:11:46;14.05;;;4.68;;
70850;SDS011;58475;49.662;9.636;2023-02-22T07:14:12;16.30;;;4.90;;
70850;SDS011;58475;49.662;9.636;2023-02-22T07:16:37;13.70;;;4.30;;
70850;SDS011;58475;49.662;9.636;2023-02-22T07:19:03;18.83;;;4.45;;
70850;SDS011;58475;49.662;9.636;2023-02-22T07:21:28;14.80;;;4.20;;
70850;SDS011;58475;49.662;9.636;2023-02-22T07:23:55;9.30;;;3.85;;
70850;SDS011;58475;49.662;9.636;2023-02-22T07:26:23;13.40;;;4.22;;
70850;SDS011;58475;49.662;9.636;2023-02-22T07:28:49;9.20;;;3.83;;
70850;SDS011;58475;49.662;9.636;2023-02-22T07:31:15;12.57;;;3.67;;
70850;SDS011;58475;49.662;9.636;2023-02-22T07:33:40;7.65;;;3.95;;
70850;SDS011;58475;49.662;9.636;2023-02-22T07:36:06;7.95;;;3.58;;
70850;SDS011;58475;49.662;9.636;2023-02-22T07:38:33;9.82;;;3.65;;
70850;SDS011;58475;49.662;9.636;2023-02-22T07:40:58;7.50;;;3.70;;
70850;SDS011;58475;49.662;9.636;2023-02-22T07:43:24;11.65;;;3.70;;
70850;SDS011;58475;49.662;9.636;2023-02-22T07:45:53;7.38;;;3.67;;
70850;SDS011;58475;49.662;9.636;2023-02-22T07:48:20;9.88;;;3.35;;
70850;SDS011;58475;49.662;9.636;2023-02-22T07:50:47;10.85;;;3.45;;
70850;SDS011;58475;49.662;9.636;2023-02-22T07:53:17;9.73;;;3.75;;
70850;SDS011;58475;49.662;9.636;2023-02-22T07:58:13;13.25;;;3.47;;
70850;SDS011;58475;49.662;9.636;2023-02-22T08:00:39;7.68;;;3.83;;
70850;SDS011;58475;49.662;9.636;2023-02-22T08:03:06;11.73;;;4.38;;
70850;SDS011;58475;49.662;9.636;2023-02-22T08:05:34;10.40;;;3.72;;
70850;SDS011;58475;49.662;9.636;2023-02-22T08:08:01;8.75;;;3.33;;
70850;SDS011;58475;49.662;9.636;2023-02-22T08:10:27;7.57;;;3.42;;
70850;SDS011;58475;49.662;9.636;2023-02-22T08:12:53;16.50;;;4.32;;
70850;SDS011;58475;49.662;9.636;2023-02-22T08:15:21;7.70;;;3.42;;
70850;SDS011;58475;49.662;9.636;2023-02-22T08:17:55;8.00;;;3.63;;
70850;SDS011;58475;49.662;9.636;2023-02-22T08:20:21;7.53;;;3.53;;
70850;SDS011;58475;49.662;9.636;2023-02-22T08:22:46;7.22;;;3.65;;
70850;SDS011;58475;49.662;9.636;2023-02-22T08:25:13;8.07;;;3.83;;
70850;SDS011;58475;49.662;9.636;2023-02-22T08:27:41;5.93;;;3.10;;
70850;SDS011;58475;49.662;9.636;2023-02-22T08:30:09;6.68;;;3.42;;
70850;SDS011;58475;49.662;9.636;2023-02-22T08:32:38;9.30;;;3.88;;
70850;SDS011;58475;49.662;9.636;2023-02-22T08:35:04;5.93;;;2.97;;
70850;SDS011;58475;49.662;9.636;2023-02-22T08:37:30;8.48;;;3.40;;
70850;SDS011;58475;49.662;9.636;2023-02-22T08:39:55;6.45;;;3.40;;
70850;SDS011;58475;49.662;9.636;2023-02-22T08:42:20;6.32;;;3.33;;
70850;SDS011;58475;49.662;9.636;2023-02-22T08:44:46;10.63;;;3.20;;
70850;SDS011;58475;49.662;9.636;2023-02-22T08:47:11;8.70;;;3.20;;
70850;SDS011;58475;49.662;9.636;2023-02-22T08:49:37;11.23;;;3.10;;
70850;SDS011;58475;49.662;9.636;2023-02-22T08:52:02;8.45;;;3.30;;
70850;SDS011;58475;49.662;9.636;2023-02-22T08:54:28;9.50;;;3.50;;
70850;SDS011;58475;49.662;9.636;2023-02-22T08:56:53;9.70;;;3.25;;
70850;SDS011;58475;49.662;9.636;2023-02-22T08:59:19;7.10;;;3.28;;
70850;SDS011;58475;49.662;9.636;2023-02-22T09:01:44;12.82;;;3.50;;
70850;SDS011;58475;49.662;9.636;2023-02-22T09:04:09;7.80;;;3.25;;
70850;SDS011;58475;49.662;9.636;2023-02-22T09:06:35;11.00;;;3.40;;
70850;SDS011;58475;49.662;9.636;2023-02-22T09:09:01;7.80;;;3.13;;
70850;SDS011;58475;49.662;9.636;2023-02-22T09:11:26;10.57;;;3.53;;
70850;SDS011;58475;49.662;9.636;2023-02-22T09:13:53;8.55;;;3.30;;
70850;SDS011;58475;49.662;9.636;2023-02-22T09:16:18;8.75;;;4.03;;
70850;SDS011;58475;49.662;9.636;2023-02-22T09:18:44;8.07;;;3.45;;
70850;SDS011;58475;49.662;9.636;2023-02-22T09:21:10;9.15;;;3.47;;
70850;SDS011;58475;49.662;9.636;2023-02-22T09:23:36;6.03;;;2.90;;
70850;SDS011;58475;49.662;9.636;2023-02-22T09:26:01;6.68;;;3.50;;
70850;SDS011;58475;49.662;9.636;2023-02-22T09:28:27;8.93;;;3.33;;
70850;SDS011;58475;49.662;9.636;2023-02-22T09:30:52;6.78;;;3.10;;
70850;SDS011;58475;49.662;9.636;2023-02-22T09:33:18;6.82;;;3.22;;
70850;SDS011;58475;49.662;9.636;2023-02-22T09:35:46;8.52;;;3.50;;
70850;SDS011;58475;49.662;9.636;2023-02-22T09:38:14;6.82;;;3.10;;
70850;SDS011;58475;49.662;9.636;2023-02-22T09:40:46;6.00;;;3.10;;
70850;SDS011;58475;49.662;9.636;2023-02-22T09:46:16;9.98;;;3.17;;
70850;SDS011;58475;49.662;9.636;2023-02-22T09:51:39;8.90;;;3.47;;
70850;SDS011;58475;49.662;9.636;2023-02-22T09:54:51;6.88;;;3.28;;
70850;SDS011;58475;49.662;9.636;2023-02-22T09:56:59;8.85;;;3.15;;
70850;SDS011;58475;49.662;9.636;2023-02-22T09:59:36;7.20;;;3.47;;
70850;SDS011;58475;49.662;9.636;2023-02-22T10:02:17;6.80;;;3.65;;
70850;SDS011;58475;49.662;9.636;2023-02-22T10:05:07;6.75;;;3.47;;
70850;SDS011;58475;49.662;9.636;2023-02-22T10:07:44;9.18;;;3.00;;
70850;SDS011;58475;49.662;9.636;2023-02-22T10:10:20;7.95;;;3.72;;
70850;SDS011;58475;49.662;9.636;2023-02-22T10:13:04;6.68;;;3.30;;
70850;SDS011;58475;49.662;9.636;2023-02-22T10:23:58;13.75;;;4.25;;
70850;SDS011;58475;49.662;9.636;2023-02-22T10:26:36;12.40;;;3.22;;
70850;SDS011;58475;49.662;9.636;2023-02-22T10:29:40;7.80;;;3.42;;
70850;SDS011;58475;49.662;9.636;2023-02-22T10:32:05;9.82;;;3.45;;
70850;SDS011;58475;49.662;9.636;2023-02-22T10:34:46;7.80;;;3.40;;
70850;SDS011;58475;49.662;9.636;2023-02-22T10:39:57;6.63;;;3.10;;
70850;SDS011;58475;49.662;9.636;2023-02-22T10:42:29;7.47;;;3.17;;
70850;SDS011;58475;49.662;9.636;2023-02-22T10:44:55;6.75;;;3.03;;
70850;SDS011;58475;49.662;9.636;2023-02-22T10:47:21;6.95;;;3.00;;
70850;SDS011;58475;49.662;9.636;2023-02-22T10:49:52;6.53;;;2.92;;
70850;SDS011;58475;49.662;9.636;2023-02-22T10:52:24;12.70;;;3.45;;
70850;SDS011;58475;49.662;9.636;2023-02-22T10:54:53;8.05;;;2.70;;
70850;SDS011;58475;49.662;9.636;2023-02-22T10:57:23;8.93;;;2.90;;
70850;SDS011;58475;49.662;9.636;2023-02-22T10:59:50;7.82;;;2.88;;
70850;SDS011;58475;49.662;9.636;2023-02-22T11:02:17;9.70;;;2.85;;
70850;SDS011;58475;49.662;9.636;2023-02-22T11:04:54;10.90;;;3.40;;
70850;SDS011;58475;49.662;9.636;2023-02-22T11:10:02;7.85;;;3.22;;
70850;SDS011;58475;49.662;9.636;2023-02-22T11:12:30;6.20;;;3.15;;
70850;SDS011;58475;49.662;9.636;2023-02-22T11:18:00;9.00;;;3.10;;
70850;SDS011;58475;49.662;9.636;2023-02-22T11:20:30;7.07;;;2.80;;
70850;SDS011;58475;49.662;9.636;2023-02-22T11:23:01;7.70;;;3.15;;
70850;SDS011;58475;49.662;9.636;2023-02-22T11:25:29;6.50;;;2.90;;
70850;SDS011;58475;49.662;9.636;2023-02-22T11:28:11;5.95;;;3.30;;
70850;SDS011;58475;49.662;9.636;2023-02-22T11:30:45;5.50;;;2.90;;
70850;SDS011;58475;49.662;9.636;2023-02-22T11:35:51;6.38;;;3.00;;
70850;SDS011;58475;49.662;9.636;2023-02-22T11:41:31;6.18;;;3.30;;
70850;SDS011;58475;49.662;9.636;2023-02-22T11:43:40;6.45;;;2.70;;
70850;SDS011;58475;49.662;9.636;2023-02-22T11:46:14;6.65;;;2.78;;
70850;SDS011;58475;49.662;9.636;2023-02-22T11:48:45;5.20;;;2.70;;
70850;SDS011;58475;49.662;9.636;2023-02-22T12:07:40;5.50;;;2.78;;
70850;SDS011;58475;49.662;9.636;2023-02-22T12:13:21;4.60;;;2.60;;
70850;SDS011;58475;49.662;9.636;2023-02-22T12:22:08;5.03;;;2.47;;
70850;SDS011;58475;49.662;9.636;2023-02-22T12:24:41;7.53;;;2.35;;
70850;SDS011;58475;49.662;9.636;2023-02-22T12:27:13;6.03;;;2.20;;
70850;SDS011;58475;49.662;9.636;2023-02-22T12:29:50;6.47;;;2.50;;
70850;SDS011;58475;49.662;9.636;2023-02-22T12:34:58;6.20;;;2.28;;
70850;SDS011;58475;49.662;9.636;2023-02-22T12:37:41;3.90;;;2.00;;
70850;SDS011;58475;49.662;9.636;2023-02-22T12:43:11;4.03;;;2.00;;
70850;SDS011;58475;49.662;9.636;2023-02-22T12:45:45;12.30;;;2.10;;
70850;SDS011;58475;49.662;9.636;2023-02-22T12:48:19;9.02;;;2.08;;
70850;SDS011;58475;49.662;9.636;2023-02-22T12:50:53;6.30;;;2.25;;
70850;SDS011;58475;49.662;9.636;2023-02-22T12:55:50;5.22;;;1.98;;
70850;SDS011;58475;49.662;9.636;2023-02-22T13:01:19;5.10;;;1.95;;
70850;SDS011;58475;49.662;9.636;2023-02-22T13:03:47;4.93;;;2.20;;
70850;SDS011;58475;49.662;9.636;2023-02-22T13:06:17;4.40;;;2.30;;
70850;SDS011;58475;49.662;9.636;2023-02-22T13:14:32;6.93;;;2.38;;
70850;SDS011;58475;49.662;9.636;2023-02-22T13:20:07;4.72;;;2.10;;
70850;SDS011;58475;49.662;9.636;2023-02-22T13:22:44;5.18;;;2.25;;
70850;SDS011;58475;49.662;9.636;2023-02-22T13:28:14;5.63;;;2.63;;
70850;SDS011;58475;49.662;9.636;2023-02-22T13:44:28;4.47;;;2.20;;
70850;SDS011;58475;49.662;9.636;2023-02-22T13:47:11;6.97;;;2.60;;
70850;SDS011;58475;49.662;9.636;2023-02-22T13:52:30;5.78;;;2.50;;
70850;SDS011;58475;49.662;9.636;2023-02-22T13:54:58;5.57;;;2.25;;
70850;SDS011;58475;49.662;9.636;2023-02-22T13:57:47;4.53;;;2.40;;
70850;SDS011;58475;49.662;9.636;2023-02-22T14:10:49;4.10;;;2.03;;
70850;SDS011;58475;49.662;9.636;2023-02-22T14:13:25;4.47;;;2.38;;
70850;SDS011;58475;49.662;9.636;2023-02-22T14:18:33;4.55;;;2.40;;
70850;SDS011;58475;49.662;9.636;2023-02-22T14:23:34;5.15;;;2.25;;
70850;SDS011;58475;49.662;9.636;2023-02-22T14:29:32;4.00;;;2.13;;
70850;SDS011;58475;49.662;9.636;2023-02-22T14:34:17;4.70;;;2.40;;
70850;SDS011;58475;49.662;9.636;2023-02-22T14:39:33;5.97;;;2.47;;
70850;SDS011;58475;49.662;9.636;2023-02-22T14:42:07;8.60;;;2.40;;
70850;SDS011;58475;49.662;9.636;2023-02-22T14:50:26;5.68;;;2.58;;
70850;SDS011;58475;49.662;9.636;2023-02-22T14:53:02;5.80;;;2.50;;
70850;SDS011;58475;49.662;9.636;2023-02-22T14:55:32;5.32;;;2.40;;
70850;SDS011;58475;49.662;9.636;2023-02-22T14:58:20;6.85;;;2.50;;
70850;SDS011;58475;49.662;9.636;2023-02-22T15:00:50;8.23;;;2.80;;
70850;SDS011;58475;49.662;9.636;2023-02-22T15:06:03;6.85;;;2.40;;
70850;SDS011;58475;49.662;9.636;2023-02-22T15:08:29;5.35;;;2.60;;
70850;SDS011;58475;49.662;9.636;2023-02-22T15:10:56;4.70;;;2.33;;
70850;SDS011;58475;49.662;9.636;2023-02-22T15:13:24;3.88;;;2.35;;
70850;SDS011;58475;49.662;9.636;2023-02-22T15:16:01;5.05;;;2.88;;
70850;SDS011;58475;49.662;9.636;2023-02-22T15:18:44;5.57;;;2.47;;
70850;SDS011;58475;49.662;9.636;2023-02-22T15:21:13;4.70;;;2.78;;
70850;SDS011;58475;49.662;9.636;2023-02-22T15:23:50;5.03;;;2.50;;
70850;SDS011;58475;49.662;9.636;2023-02-22T15:26:21;4.20;;;2.40;;
70850;SDS011;58475;49.662;9.636;2023-02-22T15:28:59;5.70;;;2.80;;
70850;SDS011;58475;49.662;9.636;2023-02-22T15:31:30;5.60;;;2.40;;
70850;SDS011;58475;49.662;9.636;2023-02-22T15:34:15;7.13;;;2.60;;
70850;SDS011;58475;49.662;9.636;2023-02-22T15:36:46;5.40;;;2.55;;
70850;SDS011;58475;49.662;9.636;2023-02-22T15:39:26;5.55;;;2.70;;
70850;SDS011;58475;49.662;9.636;2023-02-22T15:42:07;4.95;;;2.42;;
70850;SDS011;58475;49.662;9.636;2023-02-22T15:44:43;7.07;;;2.58;;
70850;SDS011;58475;49.662;9.636;2023-02-22T15:47:21;6.63;;;2.80;;
70850;SDS011;58475;49.662;9.636;2023-02-22T15:57:52;6.25;;;2.60;;
70850;SDS011;58475;49.662;9.636;2023-02-22T16:00:22;7.90;;;2.80;;
70850;SDS011;58475;49.662;9.636;2023-02-22T16:02:50;10.38;;;2.75;;
70850;SDS011;58475;49.662;9.636;2023-02-22T16:05:16;7.65;;;2.60;;
70850;SDS011;58475;49.662;9.636;2023-02-22T16:07:49;7.28;;;2.60;;
70850;SDS011;58475;49.662;9.636;2023-02-22T16:10:19;6.38;;;2.60;;
70850;SDS011;58475;49.662;9.636;2023-02-22T16:12:47;7.82;;;2.97;;
70850;SDS011;58475;49.662;9.636;2023-02-22T16:15:18;6.85;;;2.60;;
70850;SDS011;58475;49.662;9.636;2023-02-22T16:17:44;6.05;;;2.50;;
70850;SDS011;58475;49.662;9.636;2023-02-22T16:22:35;6.65;;;2.63;;
70850;SDS011;58475;49.662;9.636;2023-02-22T16:27:43;9.77;;;3.42;;
70850;SDS011;58475;49.662;9.636;2023-02-22T16:32:42;11.05;;;3.25;;
70850;SDS011;58475;49.662;9.636;2023-02-22T16:35:11;10.02;;;3.35;;
70850;SDS011;58475;49.662;9.636;2023-02-22T16:37:56;10.93;;;3.15;;
70850;SDS011;58475;49.662;9.636;2023-02-22T16:40:29;11.27;;;3.55;;
70850;SDS011;58475;49.662;9.636;2023-02-22T16:43:03;9.35;;;3.00;;
70850;SDS011;58475;49.662;9.636;2023-02-22T16:45:31;6.90;;;2.92;;
70850;SDS011;58475;49.662;9.636;2023-02-22T16:47:59;9.30;;;3.17;;
70850;SDS011;58475;49.662;9.636;2023-02-22T16:50:28;17.10;;;3.20;;
70850;SDS011;58475;49.662;9.636;2023-02-22T16:52:54;14.18;;;3.15;;
70850;SDS011;58475;49.662;9.636;2023-02-22T16:55:22;19.98;;;3.88;;
70850;SDS011;58475;49.662;9.636;2023-02-22T16:57:49;13.77;;;3.38;;
70850;SDS011;58475;49.662;9.636;2023-02-22T17:00:18;10.68;;;3.28;;
70850;SDS011;58475;49.662;9.636;2023-02-22T17:02:55;13.32;;;3.67;;
70850;SDS011;58475;49.662;9.636;2023-02-22T17:05:23;12.00;;;3.83;;
70850;SDS011;58475;49.662;9.636;2023-02-22T17:07:49;9.43;;;3.33;;
70850;SDS011;58475;49.662;9.636;2023-02-22T17:10:16;14.75;;;3.30;;
70850;SDS011;58475;49.662;9.636;2023-02-22T17:12:43;9.02;;;3.67;;
70850;SDS011;58475;49.662;9.636;2023-02-22T17:15:43;14.00;;;4.18;;
70850;SDS011;58475;49.662;9.636;2023-02-22T17:18:03;10.18;;;3.92;;
70850;SDS011;58475;49.662;9.636;2023-02-22T17:20:38;7.75;;;3.40;;
70850;SDS011;58475;49.662;9.636;2023-02-22T17:23:04;8.95;;;4.03;;
70850;SDS011;58475;49.662;9.636;2023-02-22T17:25:42;12.25;;;5.20;;
70850;SDS011;58475;49.662;9.636;2023-02-22T17:28:17;18.92;;;5.30;;
70850;SDS011;58475;49.662;9.636;2023-02-22T17:30:43;15.30;;;5.38;;
70850;SDS011;58475;49.662;9.636;2023-02-22T17:33:13;9.57;;;5.00;;
70850;SDS011;58475;49.662;9.636;2023-02-22T17:35:40;10.50;;;5.07;;
70850;SDS011;58475;49.662;9.636;2023-02-22T17:38:06;12.10;;;5.18;;
70850;SDS011;58475;49.662;9.636;2023-02-22T17:40:32;9.45;;;5.00;;
70850;SDS011;58475;49.662;9.636;2023-02-22T17:42:59;11.70;;;5.32;;
70850;SDS011;58475;49.662;9.636;2023-02-22T17:45:26;10.85;;;5.05;;
70850;SDS011;58475;49.662;9.636;2023-02-22T17:47:52;14.23;;;5.85;;
70850;SDS011;58475;49.662;9.636;2023-02-22T17:50:18;12.05;;;5.70;;
70850;SDS011;58475;49.662;9.636;2023-02-22T17:52:44;11.38;;;5.63;;
70850;SDS011;58475;49.662;9.636;2023-02-22T17:55:11;9.73;;;5.30;;